createdAt,value
2019-04-29T00:00:25.107Z,46.86
2019-04-29T00:01:25.097Z,46.86
2019-04-29T00:02:25.105Z,46.86
2019-04-29T00:03:25.079Z,46.86
2019-04-29T00:04:25.066Z,46.86
2019-04-29T00:05:25.055Z,46.86
2019-04-29T00:06:25.047Z,46.86
2019-04-29T00:07:25.033Z,46.86
2019-04-29T00:08:25.078Z,46.86
2019-04-29T00:09:25.012Z,46.86
2019-04-29T00:10:25.003Z,46.86
2019-04-29T00:11:24.984Z,46.86
2019-04-29T00:12:24.972Z,46.86
2019-04-29T00:13:24.992Z,46.86
2019-04-29T00:14:24.956Z,46.86
2019-04-29T00:15:24.944Z,46.86
2019-04-29T00:16:24.934Z,46.86
2019-04-29T00:17:24.922Z,46.86
2019-04-29T00:18:24.942Z,46.86
2019-04-29T00:19:24.901Z,46.86
2019-04-29T00:20:24.887Z,46.86
2019-04-29T00:21:24.877Z,46.76
2019-04-29T00:22:24.869Z,46.86
2019-04-29T00:23:24.859Z,46.76
2019-04-29T00:24:24.867Z,46.76
2019-04-29T00:25:24.837Z,46.76
2019-04-29T00:26:24.825Z,46.76
2019-04-29T00:27:24.812Z,46.76
2019-04-29T00:28:24.801Z,46.86
2019-04-29T00:29:24.787Z,46.86
2019-04-29T00:30:24.812Z,46.86
2019-04-29T00:31:24.765Z,46.86
2019-04-29T00:32:24.759Z,46.76
2019-04-29T00:33:24.741Z,46.76
2019-04-29T00:34:24.739Z,46.76
2019-04-29T00:35:24.727Z,46.76
2019-04-29T00:36:24.727Z,46.76
2019-04-29T00:37:24.696Z,46.76
2019-04-29T00:38:24.715Z,46.76
2019-04-29T00:39:24.674Z,46.76
2019-04-29T00:40:24.689Z,46.76
2019-04-29T00:41:24.654Z,46.76
2019-04-29T00:42:24.641Z,46.76
2019-04-29T00:43:24.668Z,46.76
2019-04-29T00:44:24.634Z,46.76
2019-04-29T00:45:24.609Z,46.66
2019-04-29T00:46:24.601Z,46.76
2019-04-29T00:47:24.588Z,46.66
2019-04-29T00:48:24.575Z,46.76
2019-04-29T00:49:24.780Z,46.76
2019-04-29T00:50:24.578Z,46.76
2019-04-29T00:51:24.542Z,46.76
2019-04-29T00:52:24.531Z,46.76
2019-04-29T00:53:24.527Z,46.76
2019-04-29T00:54:24.518Z,46.66
2019-04-29T00:55:24.527Z,46.76
2019-04-29T00:56:24.488Z,46.66
2019-04-29T00:57:24.484Z,46.66
2019-04-29T00:58:24.464Z,46.66
2019-04-29T00:59:24.456Z,46.66
2019-04-29T01:00:24.443Z,46.66
2019-04-29T01:01:24.454Z,46.66
2019-04-29T01:02:24.420Z,46.66
2019-04-29T01:03:24.413Z,46.66
2019-04-29T01:04:24.398Z,46.66
2019-04-29T01:05:24.413Z,46.66
2019-04-29T01:06:24.399Z,46.56
2019-04-29T01:07:24.368Z,46.66
2019-04-29T01:08:24.359Z,46.66
2019-04-29T01:09:24.346Z,46.56
2019-04-29T01:10:24.386Z,46.66
2019-04-29T01:11:24.326Z,46.56
2019-04-29T01:12:24.314Z,46.56
2019-04-29T01:13:24.299Z,46.56
2019-04-29T01:14:24.291Z,46.56
2019-04-29T01:15:24.280Z,46.56
2019-04-29T01:16:24.290Z,46.56
2019-04-29T01:17:24.262Z,46.56
2019-04-29T01:18:24.247Z,46.56
2019-04-29T01:19:24.237Z,46.56
2019-04-29T01:20:24.226Z,46.56
2019-04-29T01:21:24.246Z,46.56
2019-04-29T01:22:24.200Z,46.56
2019-04-29T01:23:24.192Z,46.56
2019-04-29T01:24:24.180Z,46.56
2019-04-29T01:25:24.172Z,46.56
2019-04-29T01:26:24.155Z,46.46
2019-04-29T01:27:24.169Z,46.56
2019-04-29T01:28:24.140Z,46.46
2019-04-29T01:29:24.128Z,46.46
2019-04-29T01:30:24.110Z,46.46
2019-04-29T01:31:24.106Z,46.46
2019-04-29T01:32:24.094Z,46.46
2019-04-29T01:33:24.100Z,46.46
2019-04-29T01:34:24.073Z,46.46
2019-04-29T01:35:24.061Z,46.46
2019-04-29T01:36:24.050Z,46.46
2019-04-29T01:37:24.042Z,46.46
2019-04-29T01:38:24.023Z,46.46
2019-04-29T01:39:24.301Z,46.46
2019-04-29T01:40:24.000Z,46.36
2019-04-29T01:41:23.989Z,46.46
2019-04-29T01:42:23.986Z,46.36
2019-04-29T01:43:23.973Z,46.36
2019-04-29T01:44:23.955Z,46.46
2019-04-29T01:45:23.976Z,46.36
2019-04-29T01:46:23.935Z,46.36
2019-04-29T01:47:23.931Z,46.36
2019-04-29T01:48:23.916Z,46.36
2019-04-29T01:49:23.937Z,46.36
2019-04-29T01:50:23.899Z,46.36
2019-04-29T01:51:23.883Z,46.36
2019-04-29T01:52:23.876Z,46.36
2019-04-29T01:53:23.858Z,46.36
2019-04-29T01:54:23.854Z,46.36
2019-04-29T01:55:23.858Z,46.36
2019-04-29T01:56:23.825Z,46.36
2019-04-29T01:57:23.836Z,46.26
2019-04-29T01:58:23.812Z,46.26
2019-04-29T01:59:23.804Z,46.26
2019-04-29T02:00:23.790Z,46.26
2019-04-29T02:01:23.777Z,46.26
2019-04-29T02:02:23.759Z,46.26
2019-04-29T02:03:23.776Z,46.26
2019-04-29T02:04:23.740Z,46.26
2019-04-29T02:05:23.730Z,46.26
2019-04-29T02:06:23.719Z,46.26
2019-04-29T02:07:23.712Z,46.26
2019-04-29T02:08:23.698Z,46.26
2019-04-29T02:09:23.725Z,46.26
2019-04-29T02:10:23.680Z,46.26
2019-04-29T02:11:23.665Z,46.26
2019-04-29T02:12:23.651Z,46.26
2019-04-29T02:13:23.648Z,46.26
2019-04-29T02:14:23.638Z,46.26
2019-04-29T02:15:23.657Z,46.26
2019-04-29T02:16:23.607Z,46.26
2019-04-29T02:17:23.605Z,46.26
2019-04-29T02:18:23.584Z,46.26
2019-04-29T02:19:23.577Z,46.15
2019-04-29T02:20:23.563Z,46.15
2019-04-29T02:21:23.579Z,46.15
2019-04-29T02:22:23.548Z,46.15
2019-04-29T02:23:23.537Z,46.15
2019-04-29T02:24:23.518Z,46.15
2019-04-29T02:25:23.507Z,46.15
2019-04-29T02:26:23.504Z,46.15
2019-04-29T02:27:23.515Z,46.15
2019-04-29T02:28:23.482Z,46.15
2019-04-29T02:29:23.483Z,46.15
2019-04-29T02:30:23.455Z,46.15
2019-04-29T02:31:23.444Z,46.15
2019-04-29T02:32:23.462Z,46.15
2019-04-29T02:33:23.421Z,46.15
2019-04-29T02:34:23.414Z,46.15
2019-04-29T02:35:23.405Z,46.15
2019-04-29T02:36:23.392Z,46.15
2019-04-29T02:37:23.386Z,46.15
2019-04-29T02:38:23.641Z,46.15
2019-04-29T02:39:23.360Z,46.15
2019-04-29T02:40:23.344Z,46.06
2019-04-29T02:41:23.339Z,46.06
2019-04-29T02:42:23.326Z,46.06
2019-04-29T02:43:23.317Z,46.06
2019-04-29T02:44:23.325Z,46.06
2019-04-29T02:45:23.292Z,46.06
2019-04-29T02:46:23.286Z,46.06
2019-04-29T02:47:23.271Z,46.06
2019-04-29T02:48:23.258Z,46.06
2019-04-29T02:49:23.535Z,46.06
2019-04-29T02:50:23.239Z,46.06
2019-04-29T02:51:23.227Z,46.06
2019-04-29T02:52:23.216Z,46.06
2019-04-29T02:53:23.211Z,46.06
2019-04-29T02:54:23.190Z,46.06
2019-04-29T02:55:23.205Z,46.06
2019-04-29T02:56:23.173Z,45.95
2019-04-29T02:57:23.164Z,46.06
2019-04-29T02:58:23.151Z,46.06
2019-04-29T02:59:23.141Z,45.95
2019-04-29T03:00:23.130Z,45.95
2019-04-29T03:01:23.136Z,45.95
2019-04-29T03:02:23.106Z,46.06
2019-04-29T03:03:23.143Z,46.06
2019-04-29T03:04:23.089Z,45.95
2019-04-29T03:05:23.100Z,45.95
2019-04-29T03:06:23.089Z,45.95
2019-04-29T03:07:23.051Z,45.95
2019-04-29T03:08:23.041Z,45.95
2019-04-29T03:09:23.029Z,46.06
2019-04-29T03:10:23.025Z,45.95
2019-04-29T03:11:23.013Z,45.95
2019-04-29T03:12:23.020Z,45.95
2019-04-29T03:13:22.987Z,45.95
2019-04-29T03:14:22.982Z,45.95
2019-04-29T03:15:22.984Z,45.95
2019-04-29T03:16:22.950Z,45.95
2019-04-29T03:17:22.948Z,45.95
2019-04-29T03:18:22.932Z,45.95
2019-04-29T03:19:22.918Z,45.95
2019-04-29T03:20:22.927Z,45.98
2019-04-29T03:21:22.917Z,45.98
2019-04-29T03:22:22.889Z,45.98
2019-04-29T03:23:22.875Z,45.95
2019-04-29T03:24:22.864Z,45.95
2019-04-29T03:25:22.864Z,45.95
2019-04-29T03:26:22.876Z,45.86
2019-04-29T03:27:22.863Z,45.86
2019-04-29T03:28:22.833Z,45.86
2019-04-29T03:29:22.829Z,45.87
2019-04-29T03:30:22.840Z,45.86
2019-04-29T03:31:22.820Z,45.87
2019-04-29T03:32:22.819Z,45.86
2019-04-29T03:33:22.785Z,45.95
2019-04-29T03:34:22.762Z,45.98
2019-04-29T03:35:22.753Z,45.86
2019-04-29T03:36:22.790Z,45.87
2019-04-29T03:37:22.729Z,45.86
2019-04-29T03:38:22.730Z,45.86
2019-04-29T03:39:22.708Z,45.86
2019-04-29T03:40:22.701Z,45.87
2019-04-29T03:41:22.687Z,45.86
2019-04-29T03:42:22.709Z,45.87
2019-04-29T03:43:22.663Z,45.87
2019-04-29T03:44:22.657Z,45.87
2019-04-29T03:45:22.647Z,45.87
2019-04-29T03:46:22.653Z,45.87
2019-04-29T03:47:22.628Z,45.78
2019-04-29T03:48:22.673Z,45.87
2019-04-29T03:49:22.607Z,45.86
2019-04-29T03:50:22.596Z,45.87
2019-04-29T03:51:22.578Z,45.87
2019-04-29T03:52:22.573Z,45.78
2019-04-29T03:53:22.567Z,45.78
2019-04-29T03:54:22.581Z,45.78
2019-04-29T03:55:38.251Z,45.78
2019-04-29T03:56:23.528Z,45.78
2019-04-29T03:57:22.522Z,45.75
2019-04-29T03:58:22.512Z,45.78
2019-04-29T03:59:22.502Z,45.78
2019-04-29T04:00:22.517Z,45.78
2019-04-29T04:01:22.480Z,45.78
2019-04-29T04:02:22.467Z,45.87
2019-04-29T04:03:22.453Z,45.87
2019-04-29T04:04:22.447Z,45.87
2019-04-29T04:05:22.465Z,45.78
2019-04-29T04:06:22.430Z,45.78
2019-04-29T04:07:22.411Z,45.78
2019-04-29T04:08:22.408Z,45.78
2019-04-29T04:09:22.395Z,45.78
2019-04-29T04:10:22.616Z,45.78
2019-04-29T04:11:22.375Z,45.78
2019-04-29T04:12:22.372Z,45.87
2019-04-29T04:13:22.356Z,45.78
2019-04-29T04:14:22.336Z,45.78
2019-04-29T04:15:22.330Z,45.78
2019-04-29T04:16:22.350Z,45.78
2019-04-29T04:17:22.343Z,45.78
2019-04-29T04:18:22.297Z,45.78
2019-04-29T04:19:22.290Z,45.78
2019-04-29T04:20:22.275Z,45.78
2019-04-29T04:21:22.267Z,45.78
2019-04-29T04:22:22.267Z,45.78
2019-04-29T04:23:22.285Z,45.78
2019-04-29T04:24:22.235Z,45.78
2019-04-29T04:25:22.227Z,45.78
2019-04-29T04:26:22.212Z,45.78
2019-04-29T04:27:22.203Z,45.78
2019-04-29T04:28:22.189Z,45.78
2019-04-29T04:29:22.215Z,45.78
2019-04-29T04:30:22.170Z,45.78
2019-04-29T04:31:22.161Z,45.78
2019-04-29T04:32:22.149Z,45.78
2019-04-29T04:33:22.141Z,45.78
2019-04-29T04:34:22.159Z,45.78
2019-04-29T04:35:22.114Z,45.78
2019-04-29T04:36:22.104Z,45.78
2019-04-29T04:37:22.100Z,45.78
2019-04-29T04:38:22.084Z,45.78
2019-04-29T04:39:22.112Z,45.78
2019-04-29T04:40:22.060Z,45.78
2019-04-29T04:41:22.059Z,45.78
2019-04-29T04:42:22.040Z,45.78
2019-04-29T04:43:22.031Z,45.78
2019-04-29T04:44:22.019Z,45.78
2019-04-29T04:45:22.038Z,45.78
2019-04-29T04:46:22.004Z,45.78
2019-04-29T04:47:21.994Z,45.78
2019-04-29T04:48:21.981Z,45.78
2019-04-29T04:49:21.966Z,45.78
2019-04-29T04:50:21.988Z,45.78
2019-04-29T04:51:21.946Z,45.78
2019-04-29T04:52:21.933Z,45.78
2019-04-29T04:53:22.094Z,45.78
2019-04-29T04:54:21.914Z,45.78
2019-04-29T04:55:21.936Z,45.78
2019-04-29T04:56:21.890Z,45.78
2019-04-29T04:57:21.882Z,45.78
2019-04-29T04:58:22.094Z,45.78
2019-04-29T04:59:21.860Z,45.78
2019-04-29T05:00:21.854Z,45.78
2019-04-29T05:01:21.866Z,45.78
2019-04-29T05:02:21.894Z,45.78
2019-04-29T05:03:21.820Z,45.78
2019-04-29T05:04:21.810Z,45.78
2019-04-29T05:05:21.799Z,45.78
2019-04-29T05:06:21.791Z,45.78
2019-04-29T05:07:21.775Z,45.78
2019-04-29T05:08:21.798Z,45.67
2019-04-29T05:09:21.757Z,45.67
2019-04-29T05:10:21.745Z,45.67
2019-04-29T05:11:21.737Z,45.67
2019-04-29T05:12:21.722Z,45.67
2019-04-29T05:13:28.208Z,45.67
2019-04-29T05:14:22.697Z,45.67
2019-04-29T05:15:21.693Z,45.67
2019-04-29T05:16:21.682Z,45.78
2019-04-29T05:17:21.674Z,45.78
2019-04-29T05:18:21.659Z,45.67
2019-04-29T05:19:21.680Z,45.67
2019-04-29T05:20:21.636Z,45.67
2019-04-29T05:21:21.629Z,45.67
2019-04-29T05:22:21.618Z,45.67
2019-04-29T05:23:21.608Z,45.67
2019-04-29T05:24:21.627Z,45.67
2019-04-29T05:25:21.587Z,45.67
2019-04-29T05:26:21.574Z,45.78
2019-04-29T05:27:21.564Z,45.67
2019-04-29T05:28:21.558Z,45.78
2019-04-29T05:29:21.545Z,45.78
2019-04-29T05:30:21.576Z,45.78
2019-04-29T05:31:21.521Z,45.78
2019-04-29T05:32:21.511Z,45.78
2019-04-29T05:33:21.508Z,45.78
2019-04-29T05:34:21.494Z,45.78
2019-04-29T05:35:24.915Z,45.78
2019-04-29T05:36:21.512Z,45.78
2019-04-29T05:37:21.463Z,45.78
2019-04-29T05:38:21.450Z,45.78
2019-04-29T05:39:21.442Z,45.78
2019-04-29T05:40:21.425Z,45.78
2019-04-29T05:41:21.421Z,45.78
2019-04-29T05:42:21.438Z,45.78
2019-04-29T05:43:21.399Z,45.87
2019-04-29T05:44:21.384Z,45.87
2019-04-29T05:45:21.376Z,45.87
2019-04-29T05:46:23.142Z,45.87
2019-04-29T05:47:21.355Z,45.87
2019-04-29T05:48:21.374Z,45.87
2019-04-29T05:49:21.327Z,45.87
2019-04-29T05:50:21.322Z,45.87
2019-04-29T05:51:22.790Z,45.87
2019-04-29T05:52:22.297Z,45.87
2019-04-29T05:53:21.284Z,45.87
2019-04-29T05:54:21.332Z,45.87
2019-04-29T05:55:21.268Z,45.87
2019-04-29T05:56:21.251Z,45.87
2019-04-29T05:57:25.309Z,45.87
2019-04-29T05:58:21.233Z,45.87
2019-04-29T05:59:21.223Z,45.87
2019-04-29T06:00:23.381Z,45.87
2019-04-29T06:01:21.202Z,45.98
2019-04-29T06:02:23.987Z,45.98
2019-04-29T06:03:22.180Z,45.98
2019-04-29T06:04:21.170Z,45.98
2019-04-29T06:05:21.165Z,45.98
2019-04-29T06:06:21.176Z,45.87
2019-04-29T06:07:21.869Z,45.98
2019-04-29T06:08:21.139Z,45.98
2019-04-29T06:09:21.147Z,45.98
2019-04-29T06:10:22.907Z,45.98
2019-04-29T06:11:23.166Z,45.87
2019-04-29T06:12:21.080Z,45.98
2019-04-29T06:13:21.070Z,45.98
2019-04-29T06:14:22.251Z,45.98
2019-04-29T06:15:21.098Z,45.98
2019-04-29T06:16:22.647Z,45.98
2019-04-29T06:17:21.031Z,45.98
2019-04-29T06:18:22.080Z,45.98
2019-04-29T06:19:21.013Z,45.98
2019-04-29T06:20:22.859Z,45.98
2019-04-29T06:21:21.025Z,45.98
2019-04-29T06:22:20.978Z,45.98
2019-04-29T06:23:23.148Z,46.08
2019-04-29T06:24:20.956Z,46.08
2019-04-29T06:25:20.974Z,46.08
2019-04-29T06:26:20.936Z,46.08
2019-04-29T06:27:20.968Z,46.08
2019-04-29T06:28:21.752Z,46.08
2019-04-29T06:29:21.900Z,46.08
2019-04-29T06:30:20.892Z,46.08
2019-04-29T06:31:20.884Z,46.08
2019-04-29T06:32:24.893Z,46.08
2019-04-29T06:33:24.237Z,46.08
2019-04-29T06:34:21.851Z,46.08
2019-04-29T06:35:20.837Z,46.08
2019-04-29T06:36:20.831Z,46.18
2019-04-29T06:37:20.820Z,46.18
2019-04-29T06:38:20.804Z,46.18
2019-04-29T06:39:20.831Z,46.18
2019-04-29T06:40:20.783Z,46.18
2019-04-29T06:41:20.776Z,46.18
2019-04-29T06:42:20.766Z,46.18
2019-04-29T06:43:24.548Z,46.18
2019-04-29T06:44:21.774Z,46.18
2019-04-29T06:45:20.734Z,46.18
2019-04-29T06:46:20.719Z,46.18
2019-04-29T06:47:20.709Z,46.18
2019-04-29T06:48:20.699Z,46.18
2019-04-29T06:49:20.683Z,46.18
2019-04-29T06:50:20.706Z,46.28
2019-04-29T06:51:20.662Z,46.28
2019-04-29T06:52:20.651Z,46.28
2019-04-29T06:53:21.340Z,46.28
2019-04-29T06:54:20.636Z,46.28
2019-04-29T06:55:20.628Z,46.28
2019-04-29T06:56:20.639Z,46.28
2019-04-29T06:57:20.607Z,46.28
2019-04-29T06:58:20.609Z,46.28
2019-04-29T06:59:20.617Z,46.28
2019-04-29T07:00:22.347Z,46.28
2019-04-29T07:01:20.557Z,46.28
2019-04-29T07:02:20.545Z,46.28
2019-04-29T07:03:20.949Z,46.28
2019-04-29T07:04:20.523Z,46.28
2019-04-29T07:05:20.548Z,46.28
2019-04-29T07:06:20.532Z,46.28
2019-04-29T07:07:20.491Z,46.28
2019-04-29T07:08:20.481Z,46.28
2019-04-29T07:09:20.484Z,46.28
2019-04-29T07:10:21.689Z,46.28
2019-04-29T07:11:20.611Z,46.28
2019-04-29T07:12:20.441Z,46.28
2019-04-29T07:13:22.746Z,46.28
2019-04-29T07:14:20.416Z,46.28
2019-04-29T07:15:20.405Z,46.28
2019-04-29T07:16:21.807Z,46.28
2019-04-29T07:17:21.606Z,46.28
2019-04-29T07:18:20.370Z,46.28
2019-04-29T07:19:22.120Z,46.28
2019-04-29T07:20:21.352Z,46.28
2019-04-29T07:21:20.340Z,46.28
2019-04-29T07:22:20.779Z,46.28
2019-04-29T07:23:21.347Z,46.28
2019-04-29T07:24:20.586Z,46.28
2019-04-29T07:25:20.304Z,46.38
2019-04-29T07:26:20.286Z,46.38
2019-04-29T07:27:20.277Z,46.38
2019-04-29T07:28:20.303Z,46.38
2019-04-29T07:29:20.710Z,46.38
2019-04-29T07:30:20.240Z,46.38
2019-04-29T07:31:20.233Z,46.38
2019-04-29T07:32:20.227Z,46.48
2019-04-29T07:33:22.651Z,46.48
2019-04-29T07:34:20.240Z,46.38
2019-04-29T07:35:20.194Z,46.38
2019-04-29T07:36:22.835Z,46.38
2019-04-29T07:37:20.168Z,46.38
2019-04-29T07:38:20.160Z,46.48
2019-04-29T07:39:20.193Z,46.48
2019-04-29T07:40:20.134Z,46.48
2019-04-29T07:41:20.848Z,46.38
2019-04-29T07:42:20.117Z,46.48
2019-04-29T07:43:20.101Z,46.48
2019-04-29T07:44:20.094Z,46.38
2019-04-29T07:45:23.900Z,46.48
2019-04-29T07:46:21.072Z,46.48
2019-04-29T07:47:20.062Z,46.48
2019-04-29T07:48:20.053Z,46.48
2019-04-29T07:49:20.038Z,46.48
2019-04-29T07:50:22.304Z,46.48
2019-04-29T07:51:20.015Z,46.48
2019-04-29T07:52:20.004Z,46.48
2019-04-29T07:53:21.904Z,46.48
2019-04-29T07:54:20.984Z,46.48
2019-04-29T07:55:19.978Z,46.48
2019-04-29T07:56:20.012Z,46.48
2019-04-29T07:57:19.953Z,46.48
2019-04-29T07:58:22.952Z,46.48
2019-04-29T07:59:20.930Z,46.48
2019-04-29T08:00:19.926Z,46.48
2019-04-29T08:01:24.650Z,46.48
2019-04-29T08:02:19.946Z,46.48
2019-04-29T08:03:19.889Z,46.48
2019-04-29T08:04:19.882Z,46.48
2019-04-29T08:05:19.869Z,46.48
2019-04-29T08:06:19.859Z,46.48
2019-04-29T08:07:19.848Z,46.48
2019-04-29T08:08:21.351Z,46.48
2019-04-29T08:09:19.832Z,46.48
2019-04-29T08:10:23.594Z,46.48
2019-04-29T08:11:19.807Z,46.48
2019-04-29T08:12:19.797Z,46.48
2019-04-29T08:13:19.816Z,46.48
2019-04-29T08:14:19.774Z,46.38
2019-04-29T08:15:19.763Z,46.38
2019-04-29T08:16:19.757Z,46.38
2019-04-29T08:17:19.749Z,46.38
2019-04-29T08:18:19.730Z,46.38
2019-04-29T08:19:19.756Z,46.38
2019-04-29T08:20:19.730Z,46.38
2019-04-29T08:21:19.698Z,46.38
2019-04-29T08:22:22.799Z,46.38
2019-04-29T08:23:20.679Z,46.38
2019-04-29T08:24:19.698Z,46.38
2019-04-29T08:25:21.701Z,46.38
2019-04-29T08:26:20.646Z,46.38
2019-04-29T08:27:19.637Z,46.28
2019-04-29T08:28:19.625Z,46.28
2019-04-29T08:29:19.617Z,46.28
2019-04-29T08:30:19.816Z,46.28
2019-04-29T08:31:21.102Z,46.28
2019-04-29T08:32:19.579Z,46.28
2019-04-29T08:33:19.577Z,46.38
2019-04-29T08:34:23.209Z,46.38
2019-04-29T08:35:19.547Z,46.28
2019-04-29T08:36:19.580Z,46.28
2019-04-29T08:37:19.524Z,46.28
2019-04-29T08:38:19.514Z,46.28
2019-04-29T08:39:19.504Z,46.28
2019-04-29T08:40:19.501Z,46.28
2019-04-29T08:41:21.056Z,46.28
2019-04-29T08:42:20.500Z,46.28
2019-04-29T08:43:20.618Z,46.28
2019-04-29T08:44:19.450Z,46.28
2019-04-29T08:45:19.438Z,46.28
2019-04-29T08:46:19.424Z,46.28
2019-04-29T08:47:23.066Z,46.18
2019-04-29T08:48:20.401Z,46.18
2019-04-29T08:49:19.410Z,46.18
2019-04-29T08:50:19.385Z,46.18
2019-04-29T08:51:19.369Z,46.18
2019-04-29T08:52:19.362Z,46.18
2019-04-29T08:53:19.416Z,46.18
2019-04-29T08:54:20.052Z,46.18
2019-04-29T08:55:19.548Z,46.18
2019-04-29T08:56:19.317Z,46.08
2019-04-29T08:57:19.305Z,46.08
2019-04-29T08:58:19.296Z,46.08
2019-04-29T08:59:20.642Z,46.08
2019-04-29T09:00:19.273Z,46.08
2019-04-29T09:01:19.260Z,46.08
2019-04-29T09:02:33.645Z,46.08
2019-04-29T09:03:23.367Z,45.98
2019-04-29T09:04:19.230Z,45.98
2019-04-29T09:05:19.257Z,45.98
2019-04-29T09:06:19.209Z,45.98
2019-04-29T09:07:22.123Z,45.87
2019-04-29T09:08:19.195Z,45.87
2019-04-29T09:09:28.432Z,45.98
2019-04-29T09:10:20.211Z,45.98
2019-04-29T09:11:19.153Z,45.98
2019-04-29T09:12:23.604Z,45.98
2019-04-29T09:13:20.129Z,45.98
2019-04-29T09:14:19.123Z,45.98
2019-04-29T09:15:19.111Z,45.87
2019-04-29T09:16:19.130Z,45.87
2019-04-29T09:17:20.657Z,45.98
2019-04-29T09:18:19.077Z,45.87
2019-04-29T09:19:19.068Z,45.98
2019-04-29T09:20:19.097Z,45.87
2019-04-29T09:21:19.045Z,45.87
2019-04-29T09:22:19.038Z,45.78
2019-04-29T09:23:19.029Z,45.78
2019-04-29T09:24:19.017Z,45.78
2019-04-29T09:25:21.461Z,45.78
2019-04-29T09:26:20.026Z,45.78
2019-04-29T09:27:18.978Z,45.78
2019-04-29T09:28:27.007Z,45.78
2019-04-29T09:29:19.961Z,45.78
2019-04-29T09:30:18.950Z,45.78
2019-04-29T09:31:18.973Z,45.78
2019-04-29T09:32:18.928Z,45.78
2019-04-29T09:33:18.921Z,45.78
2019-04-29T09:34:19.915Z,45.78
2019-04-29T09:35:19.893Z,45.78
2019-04-29T09:36:18.885Z,45.78
2019-04-29T09:37:23.044Z,45.78
2019-04-29T09:38:19.858Z,45.78
2019-04-29T09:39:21.227Z,45.78
2019-04-29T09:40:18.844Z,45.67
2019-04-29T09:41:18.834Z,45.78
2019-04-29T09:42:18.823Z,45.78
2019-04-29T09:43:21.385Z,45.78
2019-04-29T09:44:19.826Z,45.78
2019-04-29T09:45:22.075Z,45.78
2019-04-29T09:46:19.826Z,45.78
2019-04-29T09:47:18.764Z,45.78
2019-04-29T09:48:18.761Z,45.78
2019-04-29T09:49:18.771Z,45.78
2019-04-29T09:50:18.737Z,45.78
2019-04-29T09:51:22.775Z,45.87
2019-04-29T09:52:19.717Z,45.87
2019-04-29T09:53:18.702Z,45.87
2019-04-29T09:54:18.718Z,45.87
2019-04-29T09:55:18.678Z,45.87
2019-04-29T09:56:18.673Z,45.87
2019-04-29T09:57:18.665Z,45.87
2019-04-29T09:58:18.653Z,45.98
2019-04-29T09:59:18.671Z,45.98
2019-04-29T10:00:18.630Z,45.87
2019-04-29T10:01:20.892Z,46.08
2019-04-29T10:02:18.602Z,46.38
2019-04-29T10:03:18.593Z,46.48
2019-04-29T10:04:18.586Z,46.48
2019-04-29T10:05:18.580Z,46.58
2019-04-29T10:06:18.566Z,46.58
2019-04-29T10:07:18.583Z,46.68
2019-04-29T10:08:18.551Z,46.68
2019-04-29T10:09:18.536Z,46.78
2019-04-29T10:10:18.519Z,46.78
2019-04-29T10:11:18.513Z,46.86
2019-04-29T10:12:18.532Z,46.86
2019-04-29T10:13:18.488Z,47.36
2019-04-29T10:14:18.482Z,47.36
2019-04-29T10:15:18.476Z,47.46
2019-04-29T10:16:18.460Z,47.86
2019-04-29T10:17:18.488Z,48.17
2019-04-29T10:18:18.442Z,48.17
2019-04-29T10:19:18.427Z,48.17
2019-04-29T10:20:18.411Z,48.27
2019-04-29T10:21:21.335Z,48.17
2019-04-29T10:22:18.392Z,48.17
2019-04-29T10:23:18.675Z,48.37
2019-04-29T10:24:18.374Z,48.27
2019-04-29T10:25:18.363Z,48.17
2019-04-29T10:26:18.349Z,47.77
2019-04-29T10:27:18.338Z,47.77
2019-04-29T10:28:18.332Z,47.66
2019-04-29T10:29:20.263Z,47.66
2019-04-29T10:30:18.306Z,47.77
2019-04-29T10:31:18.296Z,47.66
2019-04-29T10:32:18.286Z,47.66
2019-04-29T10:33:19.751Z,47.97
2019-04-29T10:34:18.269Z,48.27
2019-04-29T10:35:18.307Z,48.17
2019-04-29T10:36:20.555Z,48.07
2019-04-29T10:37:18.229Z,47.77
2019-04-29T10:38:18.225Z,47.66
2019-04-29T10:39:18.586Z,47.66
2019-04-29T10:40:18.236Z,47.56
2019-04-29T10:41:18.184Z,47.66
2019-04-29T10:42:18.181Z,47.56
2019-04-29T10:43:18.165Z,47.56
2019-04-29T10:44:18.154Z,47.56
2019-04-29T10:45:18.147Z,47.56
2019-04-29T10:46:18.164Z,47.56
2019-04-29T10:47:18.123Z,47.56
2019-04-29T10:48:18.116Z,47.46
2019-04-29T10:49:18.103Z,47.46
2019-04-29T10:50:18.091Z,47.46
2019-04-29T10:51:18.121Z,47.56
2019-04-29T10:52:18.065Z,47.56
2019-04-29T10:53:18.055Z,47.46
2019-04-29T10:54:18.048Z,47.46
2019-04-29T10:55:18.037Z,47.36
2019-04-29T10:56:18.019Z,47.36
2019-04-29T10:57:18.041Z,47.36
2019-04-29T10:58:22.510Z,47.26
2019-04-29T10:59:18.991Z,47.26
2019-04-29T11:00:21.860Z,47.26
2019-04-29T11:01:18.970Z,47.16
2019-04-29T11:02:18.183Z,47.16
2019-04-29T11:03:20.769Z,47.26
2019-04-29T11:04:17.937Z,47.16
2019-04-29T11:05:17.924Z,47.16
2019-04-29T11:06:17.918Z,47.06
2019-04-29T11:07:19.186Z,47.06
2019-04-29T11:08:18.926Z,47.06
2019-04-29T11:09:17.889Z,47.26
2019-04-29T11:10:24.854Z,47.26
2019-04-29T11:11:23.265Z,47.26
2019-04-29T11:12:18.849Z,47.36
2019-04-29T11:13:17.849Z,47.36
2019-04-29T11:14:17.862Z,47.36
2019-04-29T11:15:17.814Z,47.36
2019-04-29T11:16:17.805Z,47.36
2019-04-29T11:17:17.796Z,47.36
2019-04-29T11:18:18.214Z,47.36
2019-04-29T11:19:17.842Z,47.36
2019-04-29T11:20:21.341Z,47.56
2019-04-29T11:21:17.751Z,47.66
2019-04-29T11:22:17.744Z,47.66
2019-04-29T11:23:18.287Z,47.77
2019-04-29T11:24:17.727Z,47.66
2019-04-29T11:25:17.713Z,47.56
2019-04-29T11:26:17.760Z,47.66
2019-04-29T11:27:17.688Z,47.56
2019-04-29T11:28:17.796Z,47.36
2019-04-29T11:29:17.669Z,47.26
2019-04-29T11:30:17.660Z,47.16
2019-04-29T11:31:19.278Z,47.16
2019-04-29T11:32:17.669Z,47.16
2019-04-29T11:33:17.627Z,47.16
2019-04-29T11:34:18.064Z,47.16
2019-04-29T11:35:17.609Z,47.04
2019-04-29T11:36:17.598Z,47.06
2019-04-29T11:37:19.221Z,47.14
2019-04-29T11:38:17.576Z,47.04
2019-04-29T11:39:17.568Z,47.44
2019-04-29T11:40:20.487Z,47.14
2019-04-29T11:41:19.974Z,47.04
2019-04-29T11:42:17.534Z,47.14
2019-04-29T11:43:17.546Z,47.04
2019-04-29T11:44:17.521Z,46.94
2019-04-29T11:45:17.500Z,46.84
2019-04-29T11:46:20.750Z,47.04
2019-04-29T11:47:20.900Z,47.24
2019-04-29T11:48:18.471Z,47.24
2019-04-29T11:49:17.463Z,47.04
2019-04-29T11:50:17.448Z,46.94
2019-04-29T11:51:17.436Z,46.84
2019-04-29T11:52:17.458Z,46.84
2019-04-29T11:53:17.453Z,46.84
2019-04-29T11:54:18.141Z,46.84
2019-04-29T11:55:18.500Z,46.84
2019-04-29T11:56:17.379Z,46.73
2019-04-29T11:57:17.371Z,46.84
2019-04-29T11:58:17.367Z,46.84
2019-04-29T11:59:17.472Z,46.84
2019-04-29T12:00:17.344Z,46.73
2019-04-29T12:01:17.326Z,46.73
2019-04-29T12:02:17.318Z,46.64
2019-04-29T12:03:19.060Z,46.54
2019-04-29T12:04:17.344Z,46.54
2019-04-29T12:05:17.291Z,46.54
2019-04-29T12:06:20.805Z,46.54
2019-04-29T12:07:17.267Z,46.44
2019-04-29T12:08:18.398Z,46.44
2019-04-29T12:09:17.258Z,46.44
2019-04-29T12:10:17.270Z,46.44
2019-04-29T12:11:17.227Z,46.54
2019-04-29T12:12:17.214Z,46.54
2019-04-29T12:13:18.940Z,46.44
2019-04-29T12:14:18.188Z,46.44
2019-04-29T12:15:17.183Z,46.44
2019-04-29T12:16:19.717Z,46.34
2019-04-29T12:17:18.162Z,46.34
2019-04-29T12:18:17.152Z,46.44
2019-04-29T12:19:21.185Z,46.34
2019-04-29T12:20:18.126Z,46.34
2019-04-29T12:21:17.126Z,46.44
2019-04-29T12:22:28.391Z,46.44
2019-04-29T12:23:18.099Z,46.44
2019-04-29T12:24:17.088Z,46.54
2019-04-29T12:25:17.072Z,46.73
2019-04-29T12:26:17.065Z,46.94
2019-04-29T12:27:19.989Z,46.94
2019-04-29T12:28:19.114Z,46.84
2019-04-29T12:29:18.116Z,46.73
2019-04-29T12:30:17.021Z,46.73
2019-04-29T12:31:17.012Z,46.64
2019-04-29T12:32:20.721Z,46.44
2019-04-29T12:33:17.989Z,46.34
2019-04-29T12:34:16.978Z,46.44
2019-04-29T12:35:21.696Z,46.34
2019-04-29T12:36:17.957Z,46.14
2019-04-29T12:37:16.945Z,46.14
2019-04-29T12:38:16.941Z,46.14
2019-04-29T12:39:19.809Z,46.14
2019-04-29T12:40:17.913Z,46.14
2019-04-29T12:41:21.190Z,46.14
2019-04-29T12:42:16.893Z,46.03
2019-04-29T12:43:17.678Z,46.14
2019-04-29T12:44:16.870Z,46.14
2019-04-29T12:45:19.557Z,46.14
2019-04-29T12:46:16.875Z,46.23
2019-04-29T12:47:26.314Z,46.23
2019-04-29T12:48:24.940Z,46.44
2019-04-29T12:49:17.817Z,46.54
2019-04-29T12:50:17.528Z,46.64
2019-04-29T12:51:17.217Z,46.64
2019-04-29T12:52:16.786Z,46.64